createdAt,value
2022-09-03T02:00:47.776Z,11.94
2022-09-03T02:01:08.441Z,11.94
2022-09-03T02:01:29.044Z,11.95
2022-09-03T02:01:49.703Z,11.91
2022-09-03T02:02:10.388Z,11.94
2022-09-03T02:02:31.077Z,11.94
2022-09-03T02:02:51.871Z,11.95
2022-09-03T02:03:12.466Z,11.94
2022-09-03T02:03:33.049Z,11.95
2022-09-03T02:03:53.631Z,11.91
2022-09-03T02:04:14.213Z,11.94
2022-09-03T02:04:34.797Z,11.95
2022-09-03T02:04:55.380Z,11.94
2022-09-03T02:05:15.969Z,11.95
2022-09-03T02:05:36.556Z,11.91
2022-09-03T02:05:57.137Z,11.91
2022-09-03T02:06:17.993Z,11.90
2022-09-03T02:06:38.578Z,11.90
2022-09-03T02:06:59.158Z,11.86
2022-09-03T02:07:19.554Z,11.88
2022-09-03T02:07:40.139Z,11.88
2022-09-03T02:08:00.725Z,11.86
2022-09-03T02:08:21.965Z,11.85
2022-09-03T02:08:42.349Z,11.83
2022-09-03T02:09:02.939Z,11.83
2022-09-03T02:09:23.525Z,11.82
2022-09-03T02:09:48.145Z,11.82
2022-09-03T02:10:08.731Z,11.82
2022-09-03T02:10:30.421Z,11.83
2022-09-03T02:10:51.269Z,11.82
2022-09-03T02:11:11.850Z,11.80
2022-09-03T02:11:32.433Z,11.79
2022-09-03T02:11:53.017Z,11.79
2022-09-03T02:12:13.601Z,11.80
2022-09-03T02:12:34.181Z,11.80
2022-09-03T02:12:54.764Z,11.78
2022-09-03T02:13:15.346Z,11.82
2022-09-03T02:13:35.933Z,11.79
2022-09-03T02:13:56.327Z,11.80
2022-09-03T02:14:16.719Z,11.80
2022-09-03T02:14:37.301Z,11.80
2022-09-03T02:14:57.885Z,11.79
2022-09-03T02:15:18.470Z,11.80
2022-09-03T02:15:42.973Z,11.82
2022-09-03T02:16:03.588Z,11.78
2022-09-03T02:16:24.179Z,11.78
2022-09-03T02:16:44.761Z,11.76
2022-09-03T02:17:05.344Z,11.75
2022-09-03T02:17:25.928Z,11.75
2022-09-03T02:17:46.321Z,11.73
2022-09-03T02:18:06.903Z,11.75
2022-09-03T02:18:27.491Z,11.73
2022-09-03T02:18:48.078Z,11.75
2022-09-03T02:19:08.660Z,11.73
2022-09-03T02:19:29.247Z,11.75
2022-09-03T02:19:49.836Z,11.73
2022-09-03T02:20:10.418Z,11.73
2022-09-03T02:20:31.000Z,11.75
2022-09-03T02:20:51.608Z,11.75
2022-09-03T02:21:12.189Z,11.75
2022-09-03T02:21:32.772Z,11.76
2022-09-03T02:21:53.356Z,11.75
2022-09-03T02:22:13.937Z,11.76
2022-09-03T02:22:34.523Z,11.76
2022-09-03T02:22:55.102Z,11.76
2022-09-03T02:23:15.688Z,11.76
2022-09-03T02:23:36.272Z,11.78
2022-09-03T02:23:56.852Z,11.79
2022-09-03T02:24:17.434Z,11.78
2022-09-03T02:24:38.017Z,11.78
2022-09-03T02:24:58.600Z,11.78
2022-09-03T02:25:19.177Z,11.78
2022-09-03T02:25:39.762Z,11.78
2022-09-03T02:26:00.357Z,11.79
2022-09-03T02:26:20.939Z,11.79
2022-09-03T02:26:41.526Z,11.79
2022-09-03T02:27:02.110Z,11.79
2022-09-03T02:27:22.691Z,11.79
2022-09-03T02:27:43.279Z,11.79
2022-09-03T02:28:03.864Z,11.79
2022-09-03T02:28:24.512Z,11.80
2022-09-03T02:28:45.062Z,11.80
2022-09-03T02:29:05.644Z,11.79
2022-09-03T02:29:26.231Z,11.79
2022-09-03T02:29:48.204Z,11.80
2022-09-03T02:30:08.609Z,11.80
2022-09-03T02:30:29.359Z,11.79
2022-09-03T02:30:50.074Z,11.82
2022-09-03T02:31:10.753Z,11.80
2022-09-03T02:31:31.350Z,11.79
2022-09-03T02:31:51.933Z,11.80
2022-09-03T02:32:12.520Z,11.79
2022-09-03T02:32:32.917Z,11.80
2022-09-03T02:32:53.500Z,11.80
2022-09-03T02:33:14.081Z,11.80
2022-09-03T02:33:34.660Z,11.82
2022-09-03T02:33:55.073Z,11.79
2022-09-03T02:34:15.652Z,11.79
2022-09-03T02:34:36.236Z,11.80
2022-09-03T02:34:56.816Z,11.80
2022-09-03T02:35:17.224Z,11.80
2022-09-03T02:35:37.803Z,11.79
2022-09-03T02:35:58.410Z,11.79
2022-09-03T02:36:18.987Z,11.82
2022-09-03T02:36:39.579Z,11.82
2022-09-03T02:37:00.152Z,11.79
2022-09-03T02:37:20.742Z,11.82
2022-09-03T02:37:41.326Z,11.82
2022-09-03T02:38:01.716Z,11.82
2022-09-03T02:38:22.424Z,11.79
2022-09-03T02:38:43.003Z,11.78
2022-09-03T02:39:03.584Z,11.76
2022-09-03T02:39:24.030Z,11.78
2022-09-03T02:39:44.420Z,11.76
2022-09-03T02:40:05.078Z,11.76
2022-09-03T02:40:25.649Z,11.78
2022-09-03T02:40:46.234Z,11.78
2022-09-03T02:41:06.840Z,11.78
2022-09-03T02:41:27.499Z,11.76
2022-09-03T02:41:48.080Z,11.76
2022-09-03T02:42:08.479Z,11.78
2022-09-03T02:42:30.703Z,11.76
2022-09-03T02:42:51.283Z,11.78
2022-09-03T02:43:11.869Z,11.76
2022-09-03T02:43:32.450Z,11.76
2022-09-03T02:43:53.028Z,11.76
2022-09-03T02:44:13.610Z,11.78
2022-09-03T02:44:34.192Z,11.75
2022-09-03T02:44:55.197Z,11.76
2022-09-03T02:45:15.789Z,11.75
2022-09-03T02:45:36.375Z,11.75
2022-09-03T02:45:57.053Z,11.75
2022-09-03T02:46:17.462Z,11.75
2022-09-03T02:46:38.069Z,11.76
2022-09-03T02:46:58.648Z,11.76
2022-09-03T02:47:19.256Z,11.75
2022-09-03T02:47:39.837Z,11.76
2022-09-03T02:48:00.416Z,11.75
2022-09-03T02:48:20.999Z,11.76
2022-09-03T02:48:41.585Z,11.76
2022-09-03T02:49:02.161Z,11.76
2022-09-03T02:49:22.554Z,11.75
2022-09-03T02:49:43.137Z,11.76
2022-09-03T02:50:03.722Z,11.76
2022-09-03T02:50:24.308Z,11.75
2022-09-03T02:50:44.886Z,11.75
2022-09-03T02:51:13.830Z,11.75
2022-09-03T02:51:25.894Z,11.73
2022-09-03T02:51:47.525Z,11.76
2022-09-03T02:52:08.103Z,11.75
2022-09-03T02:52:28.686Z,11.75
2022-09-03T02:52:49.266Z,11.75
2022-09-03T02:53:09.849Z,11.73
2022-09-03T02:53:30.429Z,11.73
2022-09-03T02:53:51.023Z,11.72
2022-09-03T02:54:11.407Z,11.73
2022-09-03T02:54:31.998Z,11.70
2022-09-03T02:54:52.589Z,11.72
2022-09-03T02:55:13.171Z,11.69
2022-09-03T02:55:33.753Z,11.67
2022-09-03T02:55:54.337Z,11.67
2022-09-03T02:56:14.934Z,11.67
2022-09-03T02:56:35.514Z,11.65
2022-09-03T02:56:56.095Z,11.64
2022-09-03T02:57:16.680Z,11.65
2022-09-03T02:57:37.076Z,11.64
2022-09-03T02:57:57.655Z,11.65
2022-09-03T02:58:18.239Z,11.64
2022-09-03T02:58:38.821Z,11.65
2022-09-03T02:58:59.400Z,11.65
2022-09-03T02:59:19.982Z,11.65
2022-09-03T02:59:40.558Z,11.64
2022-09-03T03:00:01.139Z,11.65
2022-09-03T03:00:21.728Z,11.62
2022-09-03T03:00:42.308Z,11.64
2022-09-03T03:01:02.971Z,11.65
2022-09-03T03:01:23.795Z,11.65
2022-09-03T03:01:46.476Z,11.65
2022-09-03T03:02:07.397Z,11.64
2022-09-03T03:02:28.084Z,11.64
2022-09-03T03:02:48.743Z,11.67
2022-09-03T03:03:09.294Z,11.64
2022-09-03T03:03:29.880Z,11.67
2022-09-03T03:03:50.462Z,11.67
2022-09-03T03:04:11.044Z,11.65
2022-09-03T03:04:31.623Z,11.65
2022-09-03T03:04:52.207Z,11.65
2022-09-03T03:05:12.790Z,11.65
2022-09-03T03:05:33.371Z,11.64
2022-09-03T03:05:54.283Z,11.65
2022-09-03T03:06:14.866Z,11.64
2022-09-03T03:06:35.460Z,11.64
2022-09-03T03:06:56.043Z,11.64
2022-09-03T03:07:16.622Z,11.64
2022-09-03T03:07:37.205Z,11.64
2022-09-03T03:07:57.784Z,11.64
2022-09-03T03:08:18.182Z,11.62
2022-09-03T03:08:38.764Z,11.64
2022-09-03T03:08:59.353Z,11.65
2022-09-03T03:09:19.930Z,11.64
2022-09-03T03:09:40.539Z,11.64
2022-09-03T03:10:01.116Z,11.64
2022-09-03T03:10:21.698Z,11.62
2022-09-03T03:10:42.281Z,11.64
2022-09-03T03:11:02.865Z,11.62
2022-09-03T03:11:23.452Z,11.64
2022-09-03T03:11:44.048Z,11.64
2022-09-03T03:12:04.627Z,11.62
2022-09-03T03:12:25.206Z,11.61
2022-09-03T03:12:45.787Z,11.60
2022-09-03T03:13:06.369Z,11.58
2022-09-03T03:13:26.764Z,11.58
2022-09-03T03:13:47.358Z,11.60
2022-09-03T03:14:07.936Z,11.58
2022-09-03T03:14:28.523Z,11.57
2022-09-03T03:14:49.104Z,11.57
2022-09-03T03:15:09.694Z,11.55
2022-09-03T03:15:30.276Z,11.52
2022-09-03T03:15:50.854Z,11.54
2022-09-03T03:16:11.470Z,11.54
2022-09-03T03:16:32.160Z,11.51
2022-09-03T03:16:52.829Z,11.54
2022-09-03T03:17:13.383Z,11.52
2022-09-03T03:17:33.960Z,11.52
2022-09-03T03:17:54.543Z,11.52
2022-09-03T03:18:15.174Z,11.54
2022-09-03T03:18:35.753Z,11.51
2022-09-03T03:18:56.334Z,11.51
2022-09-03T03:19:16.925Z,11.51
2022-09-03T03:19:37.497Z,11.49
2022-09-03T03:19:58.082Z,11.49
2022-09-03T03:20:18.692Z,11.44
2022-09-03T03:20:39.284Z,11.44
2022-09-03T03:20:59.874Z,11.44
2022-09-03T03:21:20.456Z,11.42
2022-09-03T03:21:41.051Z,11.42
2022-09-03T03:22:01.648Z,11.40
2022-09-03T03:22:22.232Z,11.42
2022-09-03T03:22:42.819Z,11.42
2022-09-03T03:23:03.398Z,11.40
2022-09-03T03:23:23.983Z,11.40
2022-09-03T03:23:44.385Z,11.43
2022-09-03T03:24:04.968Z,11.43
2022-09-03T03:24:25.569Z,11.42
2022-09-03T03:24:46.154Z,11.42
2022-09-03T03:25:06.737Z,11.40
2022-09-03T03:25:27.318Z,11.42
2022-09-03T03:25:47.903Z,11.39
2022-09-03T03:26:08.487Z,11.39
2022-09-03T03:26:29.063Z,11.37
2022-09-03T03:26:49.664Z,11.36
2022-09-03T03:27:10.247Z,11.39
2022-09-03T03:27:30.829Z,11.36
2022-09-03T03:27:51.424Z,11.37
2022-09-03T03:28:12.002Z,11.35
2022-09-03T03:28:32.592Z,11.36
2022-09-03T03:28:53.174Z,11.35
2022-09-03T03:29:13.757Z,11.35
2022-09-03T03:29:34.339Z,11.35
2022-09-03T03:29:54.923Z,11.36
2022-09-03T03:30:15.514Z,11.36
2022-09-03T03:30:36.172Z,11.35
2022-09-03T03:30:56.857Z,11.35
2022-09-03T03:31:17.207Z,11.33
2022-09-03T03:31:37.794Z,11.32
2022-09-03T03:31:58.389Z,11.32
2022-09-03T03:32:18.970Z,11.29
2022-09-03T03:32:39.557Z,11.28
2022-09-03T03:33:00.139Z,11.32
2022-09-03T03:33:20.725Z,11.28
2022-09-03T03:33:42.544Z,11.32
2022-09-03T03:34:03.119Z,11.28
2022-09-03T03:34:23.699Z,11.29
2022-09-03T03:34:44.296Z,11.32
2022-09-03T03:35:04.877Z,11.28
2022-09-03T03:35:25.462Z,11.29
2022-09-03T03:35:45.861Z,11.29
2022-09-03T03:36:06.442Z,11.28
2022-09-03T03:36:27.034Z,11.29
2022-09-03T03:36:47.438Z,11.28
2022-09-03T03:37:09.130Z,11.28
2022-09-03T03:37:29.711Z,11.28
2022-09-03T03:37:50.295Z,11.28
2022-09-03T03:38:10.884Z,11.28
2022-09-03T03:38:31.279Z,11.29
2022-09-03T03:38:51.863Z,11.29
2022-09-03T03:39:12.445Z,11.27
2022-09-03T03:39:33.111Z,11.29
2022-09-03T03:39:53.753Z,11.29
2022-09-03T03:40:14.325Z,11.28
2022-09-03T03:40:34.907Z,11.28
2022-09-03T03:40:55.502Z,11.28
2022-09-03T03:41:16.084Z,11.29
2022-09-03T03:41:36.667Z,11.28
2022-09-03T03:41:57.262Z,11.28
2022-09-03T03:42:17.858Z,11.28
2022-09-03T03:42:38.439Z,11.28
2022-09-03T03:42:59.025Z,11.29
2022-09-03T03:43:19.606Z,11.27
2022-09-03T03:43:39.999Z,11.28
2022-09-03T03:44:00.582Z,11.27
2022-09-03T03:44:21.177Z,11.27
2022-09-03T03:44:41.748Z,11.28
2022-09-03T03:45:02.330Z,11.28
2022-09-03T03:45:22.920Z,11.28
2022-09-03T03:45:43.557Z,11.29
2022-09-03T03:46:04.213Z,11.28
2022-09-03T03:46:24.903Z,11.29
2022-09-03T03:46:45.488Z,11.28
2022-09-03T03:47:06.120Z,11.29
2022-09-03T03:47:26.675Z,11.32
2022-09-03T03:47:47.260Z,11.28
2022-09-03T03:48:07.838Z,11.32
2022-09-03T03:48:28.425Z,11.29
2022-09-03T03:48:49.011Z,11.28
2022-09-03T03:49:09.590Z,11.29
2022-09-03T03:49:30.173Z,11.28
2022-09-03T03:49:50.753Z,11.32
2022-09-03T03:50:11.350Z,11.29
2022-09-03T03:50:31.934Z,11.28
2022-09-03T03:50:52.517Z,11.27
2022-09-03T03:51:13.103Z,11.27
2022-09-03T03:51:33.687Z,11.27
2022-09-03T03:51:54.269Z,11.25
2022-09-03T03:52:14.854Z,11.27
2022-09-03T03:52:35.439Z,11.27
2022-09-03T03:52:56.018Z,11.27
2022-09-03T03:53:16.610Z,11.24
2022-09-03T03:53:37.197Z,11.25
2022-09-03T03:54:00.987Z,11.25
2022-09-03T03:54:18.182Z,11.25
2022-09-03T03:54:38.767Z,11.25
2022-09-03T03:54:59.356Z,11.27
2022-09-03T03:55:19.940Z,11.27
2022-09-03T03:55:40.762Z,11.27
2022-09-03T03:56:01.346Z,11.27
2022-09-03T03:56:21.931Z,11.27
2022-09-03T03:56:42.512Z,11.25
2022-09-03T03:57:03.106Z,11.27
2022-09-03T03:57:23.699Z,11.27
2022-09-03T03:57:44.279Z,11.27
2022-09-03T03:58:04.866Z,11.27
2022-09-03T03:58:25.588Z,11.28
2022-09-03T03:58:46.175Z,11.28
2022-09-03T03:59:06.762Z,11.28
2022-09-03T03:59:27.340Z,11.28
2022-09-03T03:59:47.924Z,11.29
2022-09-03T04:00:08.505Z,11.29
2022-09-03T04:00:29.093Z,11.29
2022-09-03T04:00:49.727Z,11.29
2022-09-03T04:01:10.361Z,11.28
2022-09-03T04:01:30.983Z,11.32
2022-09-03T04:01:51.582Z,11.29
2022-09-03T04:02:12.220Z,11.29
2022-09-03T04:02:36.105Z,11.29
2022-09-03T04:02:53.222Z,11.32
2022-09-03T04:03:13.788Z,11.33
2022-09-03T04:03:34.371Z,11.33
2022-09-03T04:03:54.954Z,11.33
2022-09-03T04:04:17.129Z,11.32
2022-09-03T04:04:37.770Z,11.32
2022-09-03T04:04:58.344Z,11.33
2022-09-03T04:05:23.238Z,11.35
2022-09-03T04:05:48.438Z,11.33
2022-09-03T04:06:05.012Z,11.32
2022-09-03T04:06:25.585Z,11.32
2022-09-03T04:06:46.167Z,11.32
2022-09-03T04:07:06.751Z,11.29
2022-09-03T04:07:27.351Z,11.29
2022-09-03T04:07:47.929Z,11.29
2022-09-03T04:08:08.518Z,11.29
2022-09-03T04:08:29.099Z,11.33
2022-09-03T04:08:49.775Z,11.32
2022-09-03T04:09:10.080Z,11.33
2022-09-03T04:09:30.659Z,11.33
2022-09-03T04:09:51.242Z,11.33
2022-09-03T04:10:11.824Z,11.35
2022-09-03T04:10:32.409Z,11.33
2022-09-03T04:10:52.997Z,11.33
2022-09-03T04:11:13.576Z,11.35
2022-09-03T04:11:34.166Z,11.36
2022-09-03T04:11:54.761Z,11.35
2022-09-03T04:12:15.337Z,11.35
2022-09-03T04:12:35.752Z,11.35
2022-09-03T04:12:56.334Z,11.33
2022-09-03T04:13:16.912Z,11.36
2022-09-03T04:13:37.497Z,11.37
2022-09-03T04:13:58.078Z,11.36
2022-09-03T04:14:18.664Z,11.36
2022-09-03T04:14:39.248Z,11.36
2022-09-03T04:14:59.828Z,11.36
2022-09-03T04:15:20.410Z,11.35
2022-09-03T04:15:40.991Z,11.35
2022-09-03T04:16:01.577Z,11.35
2022-09-03T04:16:22.249Z,11.35
2022-09-03T04:16:42.922Z,11.33
2022-09-03T04:17:03.542Z,11.33
2022-09-03T04:17:25.396Z,11.35
2022-09-03T04:17:46.113Z,11.33
2022-09-03T04:18:06.708Z,11.33
2022-09-03T04:18:27.108Z,11.29
2022-09-03T04:18:47.691Z,11.32
2022-09-03T04:19:08.275Z,11.29
2022-09-03T04:19:28.858Z,11.29
2022-09-03T04:19:49.442Z,11.29
2022-09-03T04:20:10.025Z,11.29
2022-09-03T04:20:30.606Z,11.32
2022-09-03T04:20:51.185Z,11.29
2022-09-03T04:21:11.770Z,11.32
2022-09-03T04:21:32.356Z,11.32
2022-09-03T04:21:52.937Z,11.32
2022-09-03T04:22:13.523Z,11.33
2022-09-03T04:22:34.104Z,11.32
2022-09-03T04:22:54.517Z,11.32
2022-09-03T04:23:15.104Z,11.33
2022-09-03T04:23:35.687Z,11.33
2022-09-03T04:23:56.085Z,11.32
2022-09-03T04:24:16.667Z,11.33
2022-09-03T04:24:37.064Z,11.33
2022-09-03T04:24:57.641Z,11.33
2022-09-03T04:25:18.052Z,11.33
2022-09-03T04:25:38.641Z,11.35
2022-09-03T04:25:59.219Z,11.36
2022-09-03T04:26:19.802Z,11.36
2022-09-03T04:26:40.384Z,11.35
2022-09-03T04:27:00.964Z,11.33
2022-09-03T04:27:21.552Z,11.35
2022-09-03T04:27:42.133Z,11.35
2022-09-03T04:28:02.730Z,11.35
2022-09-03T04:28:25.160Z,11.35
2022-09-03T04:28:45.879Z,11.35
2022-09-03T04:29:06.467Z,11.35
2022-09-03T04:29:27.050Z,11.35
2022-09-03T04:29:47.779Z,11.36
2022-09-03T04:30:08.364Z,11.36
2022-09-03T04:30:29.864Z,11.36
2022-09-03T04:30:51.264Z,11.37
2022-09-03T04:31:11.671Z,11.35
2022-09-03T04:31:32.206Z,11.36
2022-09-03T04:31:52.795Z,11.35
2022-09-03T04:32:13.376Z,11.35
2022-09-03T04:32:33.960Z,11.35
2022-09-03T04:32:54.571Z,11.33
2022-09-03T04:33:16.044Z,11.33
2022-09-03T04:33:37.004Z,11.32
2022-09-03T04:33:57.590Z,11.33
2022-09-03T04:34:18.175Z,11.33
2022-09-03T04:34:38.754Z,11.33
2022-09-03T04:34:59.338Z,11.33
2022-09-03T04:35:19.924Z,11.35
2022-09-03T04:35:40.507Z,11.33
2022-09-03T04:36:01.086Z,11.33
2022-09-03T04:36:21.669Z,11.32
2022-09-03T04:36:42.254Z,11.33
2022-09-03T04:37:02.686Z,11.33
2022-09-03T04:37:23.238Z,11.33
2022-09-03T04:37:43.826Z,11.33
2022-09-03T04:38:04.435Z,11.35
2022-09-03T04:38:25.184Z,11.35
2022-09-03T04:38:45.411Z,11.35
2022-09-03T04:39:05.994Z,11.35
2022-09-03T04:39:26.626Z,11.35
2022-09-03T04:39:47.277Z,11.35
2022-09-03T04:40:07.883Z,11.36
2022-09-03T04:40:28.466Z,11.36
2022-09-03T04:40:49.049Z,11.35
2022-09-03T04:41:09.632Z,11.36
2022-09-03T04:41:30.212Z,11.39
2022-09-03T04:41:50.800Z,11.36
2022-09-03T04:42:11.382Z,11.39
2022-09-03T04:42:31.972Z,11.39
2022-09-03T04:42:52.554Z,11.39
2022-09-03T04:43:13.150Z,11.42
2022-09-03T04:43:33.732Z,11.42
2022-09-03T04:43:54.317Z,11.43
2022-09-03T04:44:14.898Z,11.43
2022-09-03T04:44:35.485Z,11.43
2022-09-03T04:44:56.067Z,11.43
2022-09-03T04:45:16.652Z,11.44
2022-09-03T04:45:37.320Z,11.46
2022-09-03T04:45:57.923Z,11.46
2022-09-03T04:46:18.647Z,11.47
2022-09-03T04:46:39.251Z,11.47
2022-09-03T04:46:59.831Z,11.47
2022-09-03T04:47:20.412Z,11.49
2022-09-03T04:47:40.995Z,11.51
2022-09-03T04:48:01.604Z,11.51
2022-09-03T04:48:22.187Z,11.51
2022-09-03T04:48:42.770Z,11.52
2022-09-03T04:49:03.354Z,11.52
2022-09-03T04:49:23.943Z,11.52
2022-09-03T04:49:44.544Z,11.54
2022-09-03T04:50:05.109Z,11.55
2022-09-03T04:50:25.705Z,11.55
2022-09-03T04:50:46.289Z,11.57
2022-09-03T04:51:06.869Z,11.55
2022-09-03T04:51:27.496Z,11.57
2022-09-03T04:51:48.038Z,11.58
2022-09-03T04:52:08.734Z,11.58
2022-09-03T04:52:29.317Z,11.62
2022-09-03T04:52:49.905Z,11.62
2022-09-03T04:53:10.315Z,11.60
2022-09-03T04:53:30.896Z,11.62
2022-09-03T04:53:51.477Z,11.61
2022-09-03T04:54:12.056Z,11.61
2022-09-03T04:54:32.640Z,11.62
2022-09-03T04:54:53.229Z,11.62
2022-09-03T04:55:13.814Z,11.64
2022-09-03T04:55:34.394Z,11.62
2022-09-03T04:55:54.975Z,11.65
2022-09-03T04:56:15.563Z,11.62
2022-09-03T04:56:36.142Z,11.67
2022-09-03T04:56:56.725Z,11.69
2022-09-03T04:57:17.311Z,11.67
2022-09-03T04:57:37.913Z,11.69
2022-09-03T04:57:58.472Z,11.69
2022-09-03T04:58:19.148Z,11.69
2022-09-03T04:58:43.226Z,11.70
2022-09-03T04:59:04.775Z,11.70
2022-09-03T04:59:26.506Z,11.72
2022-09-03T04:59:47.094Z,11.73
2022-09-03T05:00:07.674Z,11.75
2022-09-03T05:00:28.259Z,11.75
2022-09-03T05:00:48.936Z,11.75
2022-09-03T05:01:09.545Z,11.75
2022-09-03T05:01:30.258Z,11.76
2022-09-03T05:01:50.574Z,11.76
2022-09-03T05:02:11.194Z,11.75
2022-09-03T05:02:31.824Z,11.76
2022-09-03T05:02:52.174Z,11.79
2022-09-03T05:03:12.768Z,11.78
2022-09-03T05:03:33.347Z,11.79
2022-09-03T05:03:53.927Z,11.79
2022-09-03T05:04:14.520Z,11.82
2022-09-03T05:04:35.096Z,11.80
2022-09-03T05:04:55.675Z,11.82
2022-09-03T05:05:16.073Z,11.83
2022-09-03T05:05:36.654Z,11.83
2022-09-03T05:05:57.243Z,11.85
2022-09-03T05:06:17.821Z,11.85
2022-09-03T05:06:38.402Z,11.86
2022-09-03T05:06:58.794Z,11.86
2022-09-03T05:07:19.196Z,11.86
2022-09-03T05:07:40.968Z,11.85
2022-09-03T05:08:01.551Z,11.86
2022-09-03T05:08:22.178Z,11.86
2022-09-03T05:08:42.757Z,11.88
2022-09-03T05:09:03.338Z,11.88
2022-09-03T05:09:23.937Z,11.88
2022-09-03T05:09:44.510Z,11.90
2022-09-03T05:10:05.090Z,11.91
2022-09-03T05:10:25.672Z,11.91
2022-09-03T05:10:46.254Z,11.91
2022-09-03T05:11:06.830Z,11.94
2022-09-03T05:11:27.423Z,11.94
2022-09-03T05:11:48.013Z,11.95
2022-09-03T05:12:08.602Z,11.95
2022-09-03T05:12:29.211Z,11.95
2022-09-03T05:12:49.796Z,11.96
2022-09-03T05:13:10.391Z,11.96
2022-09-03T05:13:30.975Z,11.98
2022-09-03T05:13:51.555Z,11.99
2022-09-03T05:14:12.157Z,11.99
2022-09-03T05:14:32.733Z,11.99
2022-09-03T05:14:53.334Z,11.99
2022-09-03T05:15:13.907Z,12.01
2022-09-03T05:15:34.502Z,12.01
2022-09-03T05:15:55.111Z,12.01
2022-09-03T05:16:15.709Z,12.02
2022-09-03T05:16:36.348Z,12.04
2022-09-03T05:16:56.988Z,12.04
2022-09-03T05:17:17.550Z,12.05
2022-09-03T05:17:38.141Z,12.04
2022-09-03T05:17:58.725Z,12.05
2022-09-03T05:18:19.392Z,12.05
2022-09-03T05:18:39.999Z,12.05
2022-09-03T05:19:00.590Z,12.05
2022-09-03T05:19:21.163Z,12.05
2022-09-03T05:19:41.747Z,12.04
2022-09-03T05:20:02.331Z,12.07
2022-09-03T05:20:22.923Z,12.07
2022-09-03T05:20:43.502Z,12.07
2022-09-03T05:21:04.081Z,12.07
2022-09-03T05:21:24.697Z,12.07
2022-09-03T05:21:45.251Z,12.10
2022-09-03T05:22:05.832Z,12.10
2022-09-03T05:22:26.418Z,12.09
2022-09-03T05:22:46.999Z,12.09
2022-09-03T05:23:07.579Z,12.09
2022-09-03T05:23:28.014Z,12.12
2022-09-03T05:23:48.582Z,12.10
2022-09-03T05:24:09.171Z,12.12
2022-09-03T05:24:29.759Z,12.12
2022-09-03T05:24:50.347Z,12.13
2022-09-03T05:25:10.955Z,12.12
2022-09-03T05:25:31.530Z,12.12
2022-09-03T05:25:52.136Z,12.14
2022-09-03T05:26:12.719Z,12.14
2022-09-03T05:26:33.305Z,12.14
2022-09-03T05:26:53.904Z,12.16
2022-09-03T05:27:14.483Z,12.14
2022-09-03T05:27:35.064Z,12.17
2022-09-03T05:27:55.646Z,12.17
2022-09-03T05:28:16.328Z,12.16
2022-09-03T05:28:36.891Z,12.17
2022-09-03T05:28:57.470Z,12.19
2022-09-03T05:29:18.068Z,12.17
2022-09-03T05:29:38.654Z,12.19
2022-09-03T05:29:59.234Z,12.19
2022-09-03T05:30:19.834Z,12.19
2022-09-03T05:30:40.241Z,12.20
2022-09-03T05:31:00.811Z,12.20
2022-09-03T05:31:21.485Z,12.21
2022-09-03T05:31:42.133Z,12.21
2022-09-03T05:32:02.876Z,12.23
2022-09-03T05:32:23.449Z,12.21
2022-09-03T05:32:44.032Z,12.21
2022-09-03T05:33:04.629Z,12.21
2022-09-03T05:33:25.796Z,12.24
2022-09-03T05:33:46.382Z,12.23
2022-09-03T05:34:06.964Z,12.23
2022-09-03T05:34:27.573Z,12.27
2022-09-03T05:34:48.143Z,12.24
2022-09-03T05:35:08.751Z,12.24
2022-09-03T05:35:30.206Z,12.24
2022-09-03T05:35:49.722Z,12.27
2022-09-03T05:36:10.299Z,12.27
2022-09-03T05:36:30.886Z,12.28
2022-09-03T05:36:51.462Z,12.28
2022-09-03T05:37:12.040Z,12.28
2022-09-03T05:37:32.631Z,12.29
2022-09-03T05:37:53.213Z,12.31
2022-09-03T05:38:13.820Z,12.29
2022-09-03T05:38:34.408Z,12.29
2022-09-03T05:38:54.992Z,12.29
2022-09-03T05:39:15.573Z,12.31
2022-09-03T05:39:36.195Z,12.34
2022-09-03T05:39:56.838Z,12.32
2022-09-03T05:40:17.432Z,12.32
2022-09-03T05:40:38.013Z,12.32
2022-09-03T05:40:58.594Z,12.34
2022-09-03T05:41:19.258Z,12.34
2022-09-03T05:41:39.808Z,12.32
2022-09-03T05:42:00.402Z,12.35
2022-09-03T05:42:20.982Z,12.34
2022-09-03T05:42:41.568Z,12.35
2022-09-03T05:43:05.377Z,12.38
2022-09-03T05:43:22.583Z,12.38
2022-09-03T05:43:43.177Z,12.37
2022-09-03T05:44:03.761Z,12.38
2022-09-03T05:44:24.347Z,12.38
2022-09-03T05:44:44.932Z,12.39
2022-09-03T05:45:05.524Z,12.41
2022-09-03T05:45:26.147Z,12.41
2022-09-03T05:45:46.759Z,12.41
2022-09-03T05:46:07.432Z,12.41
2022-09-03T05:46:27.759Z,12.42
2022-09-03T05:46:48.334Z,12.45
2022-09-03T05:47:08.921Z,12.42
2022-09-03T05:47:29.500Z,12.45
2022-09-03T05:47:50.089Z,12.47
2022-09-03T05:48:10.693Z,12.47
2022-09-03T05:48:31.303Z,12.49
2022-09-03T05:48:51.881Z,12.47
2022-09-03T05:49:12.483Z,12.50
2022-09-03T05:49:33.068Z,12.49
2022-09-03T05:49:53.654Z,12.50
2022-09-03T05:50:14.045Z,12.50
2022-09-03T05:50:34.632Z,12.52
2022-09-03T05:50:55.222Z,12.52
2022-09-03T05:51:15.815Z,12.53
2022-09-03T05:51:36.386Z,12.54
2022-09-03T05:51:56.976Z,12.56
2022-09-03T05:52:17.559Z,12.56
2022-09-03T05:52:38.148Z,12.56
2022-09-03T05:52:58.729Z,12.56
2022-09-03T05:53:19.344Z,12.60
2022-09-03T05:53:39.917Z,12.60
2022-09-03T05:54:00.500Z,12.60
2022-09-03T05:54:21.087Z,12.60
2022-09-03T05:54:41.670Z,12.62
2022-09-03T05:55:02.254Z,12.62
2022-09-03T05:55:23.865Z,12.62
2022-09-03T05:55:44.445Z,12.62
2022-09-03T05:56:04.844Z,12.65
2022-09-03T05:56:25.423Z,12.65
2022-09-03T05:56:45.824Z,12.64
2022-09-03T05:57:06.411Z,12.65
2022-09-03T05:57:27.020Z,12.67
2022-09-03T05:57:47.605Z,12.67
2022-09-03T05:58:08.173Z,12.67
2022-09-03T05:58:28.793Z,12.68
2022-09-03T05:58:49.374Z,12.70
2022-09-03T05:59:09.957Z,12.70
2022-09-03T05:59:30.536Z,12.71
2022-09-03T05:59:51.127Z,12.72
2022-09-03T06:00:11.775Z,12.72
2022-09-03T06:00:32.389Z,12.72
2022-09-03T06:00:52.950Z,12.75
2022-09-03T06:01:13.527Z,12.74
2022-09-03T06:01:34.124Z,12.75
2022-09-03T06:01:59.345Z,12.77
2022-09-03T06:02:20.254Z,12.77
2022-09-03T06:02:41.000Z,12.77
2022-09-03T06:03:01.800Z,12.82
2022-09-03T06:03:22.625Z,12.79
2022-09-03T06:03:44.643Z,12.82
2022-09-03T06:04:05.281Z,12.83
2022-09-03T06:04:25.881Z,12.82
2022-09-03T06:04:46.458Z,12.83
2022-09-03T06:05:07.050Z,12.83
2022-09-03T06:05:27.627Z,12.85
2022-09-03T06:05:48.206Z,12.86
2022-09-03T06:06:09.547Z,12.87
2022-09-03T06:06:30.127Z,12.87
2022-09-03T06:06:50.705Z,12.89
2022-09-03T06:07:11.291Z,12.89
2022-09-03T06:07:31.870Z,12.89
2022-09-03T06:07:52.452Z,12.92
2022-09-03T06:08:13.045Z,12.90
2022-09-03T06:08:33.625Z,12.93
2022-09-03T06:08:54.224Z,12.95
2022-09-03T06:09:14.811Z,12.93
2022-09-03T06:09:35.407Z,12.95
2022-09-03T06:09:55.985Z,12.95
2022-09-03T06:10:16.565Z,12.95
2022-09-03T06:10:40.975Z,12.95
2022-09-03T06:11:01.793Z,12.97
2022-09-03T06:11:22.370Z,13.00
2022-09-03T06:11:42.769Z,12.97
2022-09-03T06:12:03.993Z,13.00
2022-09-03T06:12:25.227Z,13.01
2022-09-03T06:12:45.824Z,13.01
2022-09-03T06:13:06.411Z,13.01
2022-09-03T06:13:26.997Z,13.03
2022-09-03T06:13:47.590Z,13.03
2022-09-03T06:14:08.196Z,13.03
2022-09-03T06:14:28.770Z,13.05
2022-09-03T06:14:49.367Z,13.05
2022-09-03T06:15:10.014Z,13.05
2022-09-03T06:15:30.577Z,13.07
2022-09-03T06:15:51.157Z,13.07
2022-09-03T06:16:11.834Z,13.08
2022-09-03T06:16:32.489Z,13.11
2022-09-03T06:16:53.435Z,13.11
2022-09-03T06:17:14.051Z,13.11
2022-09-03T06:17:34.639Z,13.12
2022-09-03T06:17:55.221Z,13.15
2022-09-03T06:18:15.793Z,13.14
2022-09-03T06:18:36.400Z,13.15
2022-09-03T06:18:56.978Z,13.17
2022-09-03T06:19:17.609Z,13.19
2022-09-03T06:19:38.192Z,13.19
2022-09-03T06:19:58.773Z,13.20
2022-09-03T06:20:19.391Z,13.25
2022-09-03T06:20:39.969Z,13.29
2022-09-03T06:21:00.577Z,13.28
2022-09-03T06:21:21.196Z,13.29
2022-09-03T06:21:41.866Z,13.33
2022-09-03T06:22:02.465Z,13.39
2022-09-03T06:22:23.096Z,13.41
2022-09-03T06:22:45.799Z,13.44
2022-09-03T06:23:06.385Z,13.46
2022-09-03T06:23:26.964Z,13.49
2022-09-03T06:23:47.547Z,13.54
2022-09-03T06:24:08.739Z,13.54
2022-09-03T06:24:29.710Z,13.57
2022-09-03T06:24:50.371Z,13.62
2022-09-03T06:25:10.986Z,13.66
2022-09-03T06:25:31.694Z,13.69
2022-09-03T06:25:51.966Z,13.70
2022-09-03T06:26:12.549Z,13.69
2022-09-03T06:26:33.134Z,13.70